Flight Track Log - Related Links

Times and Time Zones

All times are in EDT time to prevent confusion due to time zone crossing. See the N469S flight status page for this flight to view local times or setup timezone preferences in your user account.

Time Position Orientation Groundspeed Altitude Reporting Facility
EDT Latitude Longitude Course Direction KTS MPH feet Rate Location/Type
Wed 01:52:16 PM 40.0578 -76.5394 124° Southeast 144 166 7,200  Level New York Center
Wed 01:53:17 PM 40.0447 -76.5956 253° West 150 173 8,000 750 Climbing New York Center
Wed 01:54:16 PM 40.0383 -76.6383 259° West 150 173 8,700 857 Climbing New York Center
Wed 01:55:16 PM 40.0228 -76.7019 252° West 155 178 9,700 836 Climbing New York Center
Wed 01:56:18 PM 40.0117 -76.7553 255° West 155 178 10,400 829 Climbing New York Center
Wed 01:57:00 PM -19.8601 -160.2216 124° Southeast  Level Estimated
Wed 01:57:19 PM 40.0008 -76.8058 254° West 155 178 11,400  Level New York Center
Wed 01:58:16 PM 39.9894 -76.8644 256° West 160 184 11,800 513 Climbing New York Center
Wed 01:59:16 PM 39.9739 -76.9256 252° West 165 190 12,400 347 Climbing New York Center
Wed 02:00:17 PM 39.9619 -76.9894 256° West 177 204 12,500 50 Climbing New York Center
Wed 02:01:17 PM 39.9481 -77.0586 255° West 196 226 12,500  Level New York Center
Wed 02:03:28 PM 39.9111 -77.2172 253° West 210 242 12,500  Level Washington Center
Wed 02:04:28 PM 39.8956 -77.2897 254° West 215 247 12,500  Level Washington Center
Wed 02:05:26 PM 39.8778 -77.3625 252° West 215 247 12,500  Level Washington Center
Wed 02:06:27 PM 39.8622 -77.4350 254° West 215 247 12,500  Level Washington Center
Wed 02:07:27 PM 39.8483 -77.5103 257° West 215 247 12,500  Level Washington Center
Wed 02:08:28 PM 39.8328 -77.5828 254° West 215 247 12,500  Level Washington Center
Wed 02:09:28 PM 39.8147 -77.6525 251° West 215 247 12,500  Level Washington Center
Wed 02:10:26 PM 39.7989 -77.7306 255° West 215 247 12,500  Level Washington Center
Wed 02:11:26 PM 39.7831 -77.8003 254° West 215 247 12,500  Level Washington Center
Wed 02:12:26 PM 39.7672 -77.8725 254° West 220 253 12,500  Level Washington Center
Wed 02:13:27 PM 39.7531 -77.9503 257° West 220 253 12,500  Level Washington Center
Wed 02:14:28 PM 39.7350 -78.0228 252° West 220 253 12,500  Level Washington Center
Wed 02:15:28 PM 39.7192 -78.0922 254° West 215 247 12,500  Level Washington Center
Wed 02:16:26 PM 39.7050 -78.1672 256° West 215 247 12,500  Level Washington Center
Wed 02:17:27 PM 39.6867 -78.2394 252° West 215 247 12,500  Level Washington Center
Wed 02:18:27 PM 39.6706 -78.3117 254° West 215 247 12,500  Level Washington Center
Wed 02:19:27 PM 39.6542 -78.3892 255° West 220 253 12,500  Level Washington Center
Wed 02:20:28 PM 39.6336 -78.4639 250° West 220 253 12,500  Level Washington Center
Wed 02:21:26 PM 39.6194 -78.5386 256° West 220 253 12,500  Level Washington Center
Wed 02:22:27 PM 39.6008 -78.6161 253° West 220 253 12,500  Level Washington Center
Wed 02:23:28 PM 39.5842 -78.6908 254° West 220 253 12,500  Level Washington Center
Wed 02:24:26 PM 39.5656 -78.7681 253° West 220 253 12,500  Level Washington Center
Wed 02:25:26 PM 39.5489 -78.8428 254° West 220 253 12,500  Level Washington Center
Wed 02:26:27 PM 39.5322 -78.9228 255° West 220 253 12,500 -33 Level Washington Center
Wed 02:28:26 PM 39.4972 -79.0672 253° West 198 228 12,400 -33 Descending Indianapolis Center
Wed 02:29:28 PM 39.4764 -79.1583 254° West 223 257 12,400  Level Indianapolis Center
Wed 02:30:21 PM 39.4650 -79.2225 257° West 225 259 12,400  Level Cleveland Center
Wed 02:31:21 PM 39.4469 -79.2981 253° West 225 259 12,400  Level Cleveland Center
Wed 02:32:21 PM 39.4292 -79.3819 255° West 225 259 12,400  Level Cleveland Center
Wed 02:33:21 PM 39.4092 -79.4575 251° West 225 259 12,400  Level Cleveland Center
Wed 02:34:21 PM 39.3892 -79.5383 252° West 225 259 12,400  Level Cleveland Center
Wed 02:35:21 PM 39.3731 -79.6136 255° West 225 259 12,400  Level Cleveland Center
Wed 02:36:21 PM 39.3550 -79.6919 253° West 225 259 12,400  Level Cleveland Center
Wed 02:37:21 PM 39.3347 -79.7700 251° West 225 259 12,400  Level Cleveland Center
Wed 02:38:21 PM 39.3164 -79.8453 253° West 225 259 12,400  Level Cleveland Center
Wed 02:39:21 PM 39.2961 -79.9233 251° West 225 259 12,400  Level Cleveland Center
Wed 02:40:21 PM 39.2778 -79.9986 253° West 225 259 12,400  Level Cleveland Center
Wed 02:41:52 PM 39.2483 -80.1061 251° West 227 261 12,400  Level Indianapolis Center
Wed 02:42:54 PM 39.2286 -80.1833 252° West 226 260 12,400  Level Indianapolis Center
Wed 02:43:56 PM 39.2072 -80.2742 253° West 222 255 12,400  Level Indianapolis Center
Wed 02:44:58 PM 39.1872 -80.3514 252° West 226 260 12,400  Level Indianapolis Center
Wed 02:46:00 PM 39.1689 -80.4275 253° West 224 258 12,400  Level Indianapolis Center
Wed 02:47:02 PM 39.1492 -80.5044 252° West 224 258 12,400  Level Indianapolis Center
Wed 02:48:04 PM 39.1306 -80.5797 252° West 222 255 12,400  Level Indianapolis Center
Wed 02:49:06 PM 39.1119 -80.6542 252° West 221 254 12,400  Level Indianapolis Center
Wed 02:50:09 PM 39.0933 -80.7289 252° West 218 251 12,400  Level Indianapolis Center
Wed 02:51:11 PM 39.0711 -80.8206 253° West 223 257 12,400  Level Indianapolis Center
Wed 02:52:13 PM 39.0514 -80.8961 251° West 223 257 12,400  Level Indianapolis Center
Wed 02:53:15 PM 39.0322 -80.9706 252° West 220 253 12,400  Level Indianapolis Center
Wed 02:54:17 PM 39.0131 -81.0461 252° West 222 255 12,400  Level Indianapolis Center
Wed 02:55:19 PM 38.9942 -81.1208 252° West 221 254 12,400  Level Indianapolis Center
Wed 02:56:21 PM 38.9750 -81.1961 252° West 222 255 12,400  Level Indianapolis Center
Wed 02:57:23 PM 38.9517 -81.2867 252° West 223 257 12,400  Level Indianapolis Center
Wed 02:58:25 PM 38.9319 -81.3608 251° West 223 257 12,400  Level Indianapolis Center
Wed 02:59:27 PM 38.9136 -81.4358 253° West 222 255 12,400  Level Indianapolis Center
Wed 03:00:29 PM 38.8939 -81.5106 251° West 223 257 12,400  Level Indianapolis Center
Wed 03:01:31 PM 38.8742 -81.5847 251° West 221 254 12,400  Level Indianapolis Center
Wed 03:02:33 PM 38.8517 -81.6739 252° West 221 254 12,400  Level Indianapolis Center
Wed 03:03:35 PM 38.8317 -81.7469 251° West 219 252 12,400  Level Indianapolis Center
Wed 03:04:37 PM 38.8122 -81.8219 252° West 221 254 12,400  Level Indianapolis Center
Wed 03:05:39 PM 38.7933 -81.8956 252° West 219 252 12,400  Level Indianapolis Center
Wed 03:06:41 PM 38.7736 -81.9681 251° West 217 250 12,400  Level Indianapolis Center
Wed 03:07:43 PM 38.7503 -82.0556 251° West 218 251 12,400  Level Indianapolis Center
Wed 03:08:45 PM 38.7308 -82.1275 251° West 215 247 12,400 -48 Level Indianapolis Center
Wed 03:09:47 PM 38.7117 -82.2003 251° West 215 247 12,300 -48 Descending Indianapolis Center
Wed 03:10:50 PM 38.6925 -82.2742 252° West 218 251 12,300  Level Indianapolis Center
Wed 03:11:52 PM 38.6728 -82.3464 251° West 217 250 12,300  Level Indianapolis Center
Wed 03:12:54 PM 38.6528 -82.4186 250° West 215 247 12,300  Level Indianapolis Center
Wed 03:13:56 PM 38.6322 -82.4978 252° West 215 247 12,300  Level Indianapolis Center
Wed 03:14:58 PM 38.6131 -82.5686 251° West 213 245 12,300  Level Indianapolis Center
Wed 03:16:00 PM 38.5894 -82.6528 250° West 214 246 12,300  Level Indianapolis Center
Wed 03:17:02 PM 38.5697 -82.7247 251° West 214 246 12,300  Level Indianapolis Center
Wed 03:18:04 PM 38.5508 -82.7969 252° West 214 246 12,300  Level Indianapolis Center
Wed 03:19:06 PM 38.5314 -82.8681 251° West 213 245 12,300  Level Indianapolis Center
Wed 03:20:08 PM 38.5119 -82.9406 251° West 214 246 12,300  Level Indianapolis Center
Wed 03:21:10 PM 38.4883 -83.0247 250° West 216 249 12,300  Level Indianapolis Center
Wed 03:22:12 PM 38.4686 -83.0958 251° West 213 245 12,300  Level Indianapolis Center
Wed 03:23:14 PM 38.4483 -83.1672 250° West 215 247 12,300  Level Indianapolis Center
Wed 03:24:16 PM 38.4289 -83.2400 251° West 216 249 12,300  Level Indianapolis Center
Wed 03:25:18 PM 38.4092 -83.3114 251° West 214 246 12,300  Level Indianapolis Center
Wed 03:26:20 PM 38.3861 -83.3931 250° West 211 243 12,300  Level Indianapolis Center
Wed 03:27:22 PM 38.3661 -83.4650 250° West 212 244 12,300  Level Indianapolis Center
Wed 03:28:24 PM 38.3464 -83.5353 250° West 212 244 12,300  Level Indianapolis Center
Wed 03:29:26 PM 38.3261 -83.6033 249° West 207 238 12,300  Level Indianapolis Center
Wed 03:30:28 PM 38.3072 -83.6736 251° West 207 238 12,300 -48 Level Indianapolis Center
Wed 03:31:31 PM 38.2867 -83.7433 249° West 210 242 12,200 -384 Descending Indianapolis Center
Wed 03:32:33 PM 38.2622 -83.8258 249° West 213 245 11,500 -774 Descending Indianapolis Center
Wed 03:33:35 PM 38.2408 -83.9044 251° West 231 266 10,600 -1,065 Descending Indianapolis Center
Wed 03:34:37 PM 38.2186 -83.9831 250° West 235 270 9,300 -1,161 Descending Indianapolis Center
Wed 03:35:39 PM 38.1942 -84.0633 249° West 241 277 8,200 -919 Descending Indianapolis Center
Wed 03:36:41 PM 38.1725 -84.1414 251° West 237 273 7,400 -871 Descending Indianapolis Center
Wed 03:37:43 PM 38.1475 -84.2264 250° West 228 262 6,400 -968 Descending Indianapolis Center
Wed 03:38:45 PM 38.1272 -84.2981 250° West 222 255 5,400 -968 Descending Indianapolis Center
Wed 03:39:47 PM 38.1067 -84.3686 250° West 217 250 4,400 -919 Descending Indianapolis Center
Wed 03:40:49 PM 38.0644 -84.4125 219° Southwest 212 244 3,500 -435 Descending Indianapolis Center
Wed 03:41:51 PM 38.0278 -84.4567 224° Southwest 196 226 3,500 -48 Level Indianapolis Center
Wed 03:42:53 PM 37.9925 -84.5003 224° Southwest 175 201 3,400  Descending Indianapolis Center
Wed 03:43:55 PM 37.9819 -84.5447 253° West 156 180 3,500 -387 Climbing Indianapolis Center
Wed 03:44:57 PM 37.9819 -84.5978 270° West 151 174 2,600 -435 Descending Indianapolis Center
Wed 03:45:59 PM 37.9842 -84.6431 274° West 149 171 2,600  Level Indianapolis Center
Wed 03:47:00 PM 38.0333 -84.6000 270° West  Level FlightAware Approximate
Wed 03:54:00 PM 38.0368 -84.6086 270° West  Level Estimated

Login

Don't have an account? Register now (free) for customized features, flight alerts, and more!